Time;durP1;ratioP1;P1;durP2;ratioP2;P2;SDS_P1;SDS_P2;PMS_P1;PMS_P2;Temp;Humidity;BMP_temperature;BMP_pressure;BME280_temperature;BME280_humidity;BME280_pressure;Samples;Min_cycle;Max_cycle;Signal;HPM_P1;HPM_P2
2021/07/14 00:02:21;;;;;;;14.27;13.10;;;;;;;20.16;100.00;99757.00;5071495;28;20193;-72
2021/07/14 00:04:46;;;;;;;14.33;13.13;;;;;;;20.12;100.00;99749.84;5071529;28;20642;-72
2021/07/14 00:07:12;;;;;;;17.83;16.43;;;;;;;20.08;100.00;99744.28;5071386;28;20293;-72
2021/07/14 00:09:37;;;;;;;15.43;14.00;;;;;;;20.06;100.00;99746.66;5071523;28;20206;-72
2021/07/14 00:12:06;;;;;;;15.13;13.93;;;;;;;20.02;100.00;99745.88;5071243;28;20186;-72
2021/07/14 00:22:31;;;;;;;16.90;15.43;;;;;;;19.87;100.00;99758.88;5071100;28;20261;-72
2021/07/14 00:24:57;;;;;;;12.27;11.30;;;;;;;19.84;100.00;99764.44;5071101;28;20397;-73
2021/07/14 00:27:24;;;;;;;17.93;15.87;;;;;;;19.82;100.00;99781.47;5069786;28;20193;-72
2021/07/14 00:29:53;;;;;;;16.43;15.13;;;;;;;19.82;100.00;99777.91;5071035;28;20608;-72
2021/07/14 00:32:18;;;;;;;15.60;14.30;;;;;;;19.81;100.00;99782.63;5070872;28;20175;-72
2021/07/14 00:34:44;;;;;;;18.17;16.57;;;;;;;19.82;100.00;99778.69;5070861;28;20174;-73
2021/07/14 00:37:10;;;;;;;18.87;17.17;;;;;;;19.86;100.00;99773.16;5070846;28;20235;-72
2021/07/14 00:39:37;;;;;;;12.23;11.20;;;;;;;19.89;100.00;99770.38;5070828;28;20535;-72
2021/07/14 00:42:03;;;;;;;18.27;16.77;;;;;;;19.89;100.00;99767.59;5070697;28;20177;-72
2021/07/14 00:44:28;;;;;;;19.37;17.43;;;;;;;19.95;100.00;99778.31;5070746;28;20175;-72
2021/07/14 00:46:55;;;;;;;18.23;16.53;;;;;;;20.01;100.00;99783.09;5070795;28;20239;-73
2021/07/14 00:49:20;;;;;;;18.20;16.67;;;;;;;20.06;100.00;99779.94;5070815;28;20662;-73
2021/07/14 00:51:46;;;;;;;16.87;15.37;;;;;;;20.09;100.00;99781.91;5070497;28;20190;-72
2021/07/14 00:54:12;;;;;;;16.77;15.37;;;;;;;20.12;100.00;99791.47;5070650;28;20619;-72
2021/07/14 00:56:39;;;;;;;17.20;15.80;;;;;;;20.13;100.00;99790.28;5070629;28;20174;-73
2021/07/14 00:59:04;;;;;;;14.40;13.27;;;;;;;20.14;100.00;99789.09;5070645;28;20505;-72
2021/07/14 01:01:31;;;;;;;15.77;14.47;;;;;;;20.12;100.00;99780.38;5070616;28;20273;-72
2021/07/14 01:04:21;;;;;;;13.57;12.40;;;;;;;20.09;100.00;99779.16;5070704;28;20201;-72
2021/07/14 01:06:47;;;;;;;16.87;15.33;;;;;;;20.10;100.00;99775.19;5070433;28;20559;-72
2021/07/14 01:09:15;;;;;;;16.53;15.20;;;;;;;20.12;100.00;99764.53;5070517;28;20209;-72
2021/07/14 01:11:41;;;;;;;14.17;12.97;;;;;;;20.14;100.00;99766.91;5070416;28;20171;-72
2021/07/14 01:14:09;;;;;;;15.77;14.30;;;;;;;20.12;100.00;99766.50;5070582;28;20261;-72
2021/07/14 01:16:43;;;;;;;15.80;14.47;;;;;;;20.12;100.00;99760.94;5070154;28;20188;-73
2021/07/14 01:19:42;;;;;;;14.80;13.50;;;;;;;20.12;100.00;99760.94;5070461;28;20272;-72
2021/07/14 01:22:30;;;;;;;15.27;13.67;;;;;;;20.11;100.00;99760.16;5070307;28;20173;-72
2021/07/14 01:25:06;;;;;;;13.20;12.03;;;;;;;20.10;100.00;99758.53;5070509;28;20174;-72
2021/07/14 01:27:36;;;;;;;15.27;13.97;;;;;;;20.10;100.00;99761.31;5070391;28;20194;-72
2021/07/14 01:30:07;;;;;;;14.50;13.20;;;;;;;20.12;100.00;99758.97;5070629;28;20483;-72
2021/07/14 01:32:35;;;;;;;14.90;13.60;;;;;;;20.11;100.00;99745.50;5070118;28;20228;-72
2021/07/14 01:35:08;;;;;;;15.67;14.43;;;;;;;20.10;100.00;99744.69;5070038;28;20646;-72
2021/07/14 01:37:34;;;;;;;17.07;15.60;;;;;;;20.10;100.00;99744.69;5070146;28;20232;-73
2021/07/14 01:40:03;;;;;;;15.27;14.07;;;;;;;20.10;100.00;99747.44;5070267;28;20630;-72
2021/07/14 01:42:30;;;;;;;15.37;14.07;;;;;;;20.11;100.00;99749.06;5070225;28;20170;-73
2021/07/14 01:44:57;;;;;;;14.50;13.30;;;;;;;20.10;100.00;99743.88;5070198;28;20175;-71
2021/07/14 01:47:24;;;;;;;15.43;14.03;;;;;;;20.04;100.00;99732.41;5070086;28;20686;-72
2021/07/14 01:49:52;;;;;;;16.83;15.03;;;;;;;19.99;100.00;99727.25;5070142;28;20673;-72
2021/07/14 01:52:19;;;;;;;14.13;12.97;;;;;;;19.95;100.00;99726.41;5070194;28;20182;-72
2021/07/14 01:54:47;;;;;;;14.53;13.23;;;;;;;19.90;100.00;99719.28;5070104;28;20566;-72
2021/07/14 01:57:13;;;;;;;14.77;13.57;;;;;;;19.87;100.00;99724.81;5069922;28;20179;-73
2021/07/14 01:59:41;;;;;;;11.80;10.90;;;;;;;19.83;100.00;99726.81;5069990;28;20182;-72
2021/07/14 02:02:09;;;;;;;13.50;12.43;;;;;;;19.79;100.00;99725.97;5069723;28;20186;-72
2021/07/14 02:04:38;;;;;;;15.57;14.33;;;;;;;19.77;100.00;99726.38;5069989;28;20714;-73
2021/07/14 02:07:15;;;;;;;18.37;16.77;;;;;;;19.79;100.00;99728.75;5069996;28;20593;-72
2021/07/14 02:09:43;;;;;;;18.73;16.93;;;;;;;19.80;100.00;99736.66;5069975;28;20510;-73
2021/07/14 02:12:13;;;;;;;17.20;15.80;;;;;;;19.81;100.00;99735.47;5069781;28;20582;-72
2021/07/14 02:14:51;;;;;;;18.00;16.47;;;;;;;19.78;100.00;99725.19;5069627;28;20175;-72
2021/07/14 02:17:18;;;;;;;17.33;15.73;;;;;;;19.76;100.00;99724.00;5070843;28;20232;-72
2021/07/14 02:19:53;;;;;;;18.13;16.57;;;;;;;19.75;100.00;99731.53;5073556;28;20170;-72
2021/07/14 02:22:19;;;;;;;14.63;13.30;;;;;;;19.75;100.00;99733.50;5073239;28;20708;-72
2021/07/14 02:24:45;;;;;;;16.93;15.43;;;;;;;19.74;100.00;99740.22;5072993;28;20183;-72
2021/07/14 02:27:10;;;;;;;17.00;15.60;;;;;;;19.72;100.00;99737.06;5072420;28;20529;-73
2021/07/14 02:29:40;;;;;;;18.23;16.57;;;;;;;19.73;100.00;99736.66;5073272;28;20210;-72
2021/07/14 02:32:07;;;;;;;19.50;17.73;;;;;;;19.73;100.00;99747.75;5073237;28;20256;-73
2021/07/14 02:34:34;;;;;;;17.47;16.07;;;;;;;19.74;100.00;99743.78;5073017;28;20253;-72
2021/07/14 02:37:02;;;;;;;18.93;16.97;;;;;;;19.75;100.00;99750.91;5073006;28;20677;-72
2021/07/14 02:39:27;;;;;;;18.53;16.97;;;;;;;19.73;100.00;99750.53;5073019;28;20232;-72
2021/07/14 02:42:02;;;;;;;19.00;17.40;;;;;;;19.73;100.00;99753.28;5072955;28;20174;-73
2021/07/14 02:44:28;;;;;;;19.27;16.57;;;;;;;19.72;100.00;99762.00;5073071;28;20174;-72
2021/07/14 02:46:56;;;;;;;19.03;17.13;;;;;;;19.69;100.00;99762.78;5072897;28;20597;-72
2021/07/14 02:49:25;;;;;;;17.23;15.07;;;;;;;19.67;100.00;99770.66;5072903;28;20250;-72
2021/07/14 02:51:51;;;;;;;16.87;15.13;;;;;;;19.63;100.00;99767.88;5072923;28;20262;-72
2021/07/14 02:54:22;;;;;;;17.70;16.13;;;;;;;19.60;100.00;99788.88;5072628;28;20179;-72
2021/07/14 02:56:51;;;;;;;17.30;15.83;;;;;;;19.61;100.00;99790.47;5072780;28;20174;-72
2021/07/14 02:59:20;;;;;;;14.93;13.40;;;;;;;19.60;100.00;99780.56;5072637;28;20181;-72
2021/07/14 03:01:45;;;;;;;15.63;14.27;;;;;;;19.58;100.00;99804.31;5072482;28;20261;-73
2021/07/14 03:04:12;;;;;;;16.93;15.50;;;;;;;19.56;100.00;99801.91;5072907;28;20633;-73
2021/07/14 03:06:40;;;;;;;17.63;16.13;;;;;;;19.54;100.00;99809.84;5072630;28;20177;-73
2021/07/14 03:09:08;;;;;;;18.27;16.27;;;;;;;19.53;100.00;99812.97;5072555;28;20210;-73
2021/07/14 03:11:37;;;;;;;17.90;15.20;;;;;;;19.51;100.00;99818.88;5072408;28;20167;-73
2021/07/14 03:14:05;;;;;;;17.80;16.27;;;;;;;19.51;100.00;99812.53;5072350;28;20224;-72
2021/07/14 03:16:36;;;;;;;15.90;14.60;;;;;;;19.51;100.00;99806.97;5072257;28;20175;-73
2021/07/14 03:19:02;;;;;;;15.60;14.30;;;;;;;19.49;100.00;99810.16;5072245;28;20228;-73
2021/07/14 03:21:31;;;;;;;17.63;15.57;;;;;;;19.54;100.00;99829.22;5072257;28;20179;-73
2021/07/14 03:23:59;;;;;;;17.00;15.30;;;;;;;19.58;100.00;99835.56;5072096;28;20182;-72
2021/07/14 03:26:25;;;;;;;15.77;14.37;;;;;;;19.59;100.00;99825.28;5071126;28;20532;-73
2021/07/14 03:28:52;;;;;;;15.63;14.33;;;;;;;19.60;100.00;99824.09;5071744;28;20198;-73
2021/07/14 03:31:19;;;;;;;16.20;14.90;;;;;;;19.60;100.00;99827.66;5072092;28;20245;-72
2021/07/14 03:33:45;;;;;;;16.23;14.80;;;;;;;19.61;100.00;99829.25;5072094;28;20163;-73
2021/07/14 03:36:10;;;;;;;16.27;14.73;;;;;;;19.64;100.00;99830.44;5072113;28;20182;-73
2021/07/14 03:38:37;;;;;;;15.00;13.70;;;;;;;19.61;100.00;99820.94;5071984;28;20174;-73
2021/07/14 03:41:03;;;;;;;17.70;12.90;;;;;;;19.60;100.00;99837.97;5071692;28;20175;-73
2021/07/14 03:43:29;;;;;;;15.13;13.83;;;;;;;19.63;100.00;99858.56;5071915;28;20209;-73
2021/07/14 03:45:56;;;;;;;14.73;13.43;;;;;;;19.61;100.00;99840.34;5071760;28;20205;-72
2021/07/14 03:48:24;;;;;;;14.23;13.07;;;;;;;19.64;100.00;99843.50;5072131;28;20541;-73
2021/07/14 03:50:51;;;;;;;14.33;13.17;;;;;;;19.62;100.00;99846.69;5071549;28;20174;-73
2021/07/14 03:53:18;;;;;;;14.63;13.30;;;;;;;19.61;100.00;99853.41;5071711;28;20182;-73
2021/07/14 03:55:45;;;;;;;14.70;13.37;;;;;;;19.57;100.00;99861.69;5071385;28;20393;-73
2021/07/14 03:58:11;;;;;;;14.13;12.93;;;;;;;19.58;100.00;99873.59;5071658;28;20695;-73
2021/07/14 04:00:37;;;;;;;14.57;12.63;;;;;;;19.54;100.00;99868.03;5071440;28;20178;-73
2021/07/14 04:03:03;;;;;;;14.80;13.60;;;;;;;19.51;100.00;99871.50;5071409;28;20187;-73
2021/07/14 04:05:29;;;;;;;14.77;13.57;;;;;;;19.52;100.00;99867.56;5071360;28;20197;-73
2021/07/14 04:07:57;;;;;;;14.93;13.60;;;;;;;19.57;100.00;99864.47;5071285;28;20202;-73
2021/07/14 04:10:23;;;;;;;15.00;13.77;;;;;;;19.62;100.00;99866.06;5071295;28;20666;-72
2021/07/14 04:12:49;;;;;;;13.63;12.53;;;;;;;19.64;100.00;99874.78;5071304;28;20257;-73
2021/07/14 04:15:15;;;;;;;13.83;12.73;;;;;;;19.66;100.00;99875.19;5071182;28;20257;-72
2021/07/14 04:17:40;;;;;;;15.53;14.33;;;;;;;19.65;100.00;99872.81;5071248;28;20257;-73
2021/07/14 04:20:06;;;;;;;15.07;13.77;;;;;;;19.66;100.00;99877.19;5071164;28;20672;-73
2021/07/14 04:22:32;;;;;;;16.63;14.93;;;;;;;19.66;100.00;99879.94;5070336;28;20174;-73
2021/07/14 04:24:59;;;;;;;17.17;15.73;;;;;;;19.67;100.00;99876.00;5071088;28;20175;-73
2021/07/14 04:27:25;;;;;;;15.60;13.87;;;;;;;19.65;100.00;99887.47;5071013;28;20198;-73
2021/07/14 04:29:50;;;;;;;18.83;16.03;;;;;;;19.61;100.00;99879.13;5071057;28;20212;-72
2021/07/14 04:32:15;;;;;;;18.90;15.50;;;;;;;19.55;100.00;99874.34;5070862;28;20178;-73
2021/07/14 04:34:41;;;;;;;18.27;15.77;;;;;;;19.49;100.00;99867.53;5071061;28;20236;-73
2021/07/14 04:37:06;;;;;;;18.97;17.10;;;;;;;19.47;100.00;99879.00;5069543;28;20182;-73
2021/07/14 04:39:31;;;;;;;17.60;16.00;;;;;;;19.52;100.00;99886.16;5070558;28;20178;-75
2021/07/14 04:41:57;;;;;;;18.33;16.63;;;;;;;19.51;100.00;99874.28;5070742;28;20257;-73
2021/07/14 04:47:17;;;;;;;20.93;15.87;;;;;;;19.49;100.00;99871.09;5057674;28;20195;-75
2021/07/14 04:49:43;;;;;;;18.73;17.03;;;;;;;19.52;100.00;99867.56;5077944;28;20795;-75
2021/07/14 04:52:09;;;;;;;15.83;14.47;;;;;;;19.51;100.00;99874.28;5071791;28;20243;-75
2021/07/14 04:54:35;;;;;;;16.10;13.63;;;;;;;19.47;100.00;99861.59;5071066;28;20196;-74
2021/07/14 04:57:00;;;;;;;17.13;15.23;;;;;;;19.46;100.00;99848.91;5071221;28;20178;-75
2021/07/14 04:59:25;;;;;;;19.57;16.60;;;;;;;19.47;100.00;99844.97;5070570;28;20591;-75
2021/07/14 05:01:51;;;;;;;15.70;14.27;;;;;;;19.50;100.00;99846.97;5070545;28;20178;-74
2021/07/14 05:04:16;;;;;;;19.13;14.63;;;;;;;19.47;100.00;99848.53;5070322;28;20572;-75
2021/07/14 05:06:42;;;;;;;16.50;14.90;;;;;;;19.48;100.00;99847.34;5070439;28;20174;-75
2021/07/14 05:09:07;;;;;;;17.50;15.73;;;;;;;19.51;100.00;99840.25;5070395;28;20233;-75
2021/07/14 05:11:33;;;;;;;17.50;15.77;;;;;;;19.52;100.00;99869.53;5070141;28;20190;-75
2021/07/14 05:13:58;;;;;;;21.40;16.53;;;;;;;19.57;100.00;99855.38;5070420;28;20220;-74
2021/07/14 05:16:23;;;;;;;19.80;17.70;;;;;;;19.57;100.00;99850.63;5070435;28;20650;-75
2021/07/14 05:18:49;;;;;;;21.17;17.13;;;;;;;19.60;100.00;99852.59;5069092;28;20185;-75
2021/07/14 05:21:14;;;;;;;18.27;15.80;;;;;;;19.65;100.00;99861.72;5070227;28;20537;-75
2021/07/14 05:23:39;;;;;;;20.23;16.60;;;;;;;19.64;100.00;99852.63;5070127;28;20174;-75
2021/07/14 05:26:05;;;;;;;24.53;17.63;;;;;;;19.65;100.00;99854.22;5070283;28;20183;-75
2021/07/14 05:28:30;;;;;;;19.40;17.07;;;;;;;19.68;100.00;99867.31;5070055;28;20198;-75
2021/07/14 05:30:56;;;;;;;17.77;14.37;;;;;;;19.68;100.00;99872.06;5069816;28;20228;-74
2021/07/14 05:33:22;;;;;;;18.73;15.73;;;;;;;19.68;100.00;99872.88;5070200;28;20519;-75
2021/07/14 05:35:47;;;;;;;20.83;16.83;;;;;;;19.66;100.00;99875.19;5070086;28;20181;-75
2021/07/14 05:38:19;;;;;;;21.77;17.70;;;;;;;19.65;100.00;99870.84;5070407;28;20181;-75
2021/07/14 05:40:46;;;;;;;18.57;16.43;;;;;;;19.72;100.00;99876.44;5069910;28;20171;-75
2021/07/14 05:43:11;;;;;;;20.17;17.63;;;;;;;19.73;100.00;99868.91;5069942;28;20179;-75
2021/07/14 05:45:37;;;;;;;18.40;16.07;;;;;;;19.81;100.00;99870.53;5069879;28;20181;-75
2021/07/14 05:48:03;;;;;;;22.50;16.57;;;;;;;19.79;100.00;99870.13;5069873;28;20201;-75
2021/07/14 05:50:28;;;;;;;18.00;16.20;;;;;;;19.80;100.00;99863.41;5069832;28;20171;-74
2021/07/14 05:52:54;;;;;;;17.83;15.83;;;;;;;19.83;100.00;99862.66;5071950;28;20170;-74
2021/07/14 05:55:20;;;;;;;18.13;16.23;;;;;;;19.81;100.00;99859.44;5073638;28;20649;-74
2021/07/14 05:57:45;;;;;;;18.77;16.60;;;;;;;19.79;100.00;99928.34;5073746;28;20231;-74
2021/07/14 06:00:11;;;;;;;20.07;17.77;;;;;;;19.79;100.00;99901.41;5072377;28;20179;-74
2021/07/14 06:02:36;;;;;;;17.87;15.90;;;;;;;19.81;100.00;99892.72;5073272;28;20243;-73
2021/07/14 06:05:04;;;;;;;19.07;16.30;;;;;;;19.83;100.00;99895.91;5073821;28;20556;-74
2021/07/14 06:07:30;;;;;;;26.57;18.40;;;;;;;19.83;100.00;99885.63;5073366;28;20171;-74
2021/07/14 06:09:55;;;;;;;19.27;15.07;;;;;;;19.81;100.00;99887.97;5073487;28;20228;-81
2021/07/14 06:12:21;;;;;;;26.37;18.27;;;;;;;19.81;100.00;99914.88;5073086;28;20174;-75
2021/07/14 06:14:49;;;;;;;26.17;18.77;;;;;;;19.82;100.00;99913.75;5070570;28;20194;-74
2021/07/14 06:17:14;;;;;;;21.07;17.23;;;;;;;19.84;100.00;99911.38;5072935;28;20178;-74
2021/07/14 06:19:40;;;;;;;26.37;19.00;;;;;;;19.83;100.00;99912.56;5073467;28;20171;-74
2021/07/14 06:22:05;;;;;;;26.07;17.60;;;;;;;19.84;100.00;99914.94;5073660;28;20503;-73
2021/07/14 06:24:31;;;;;;;23.67;19.27;;;;;;;19.89;100.00;99913.75;5073114;28;20202;-73
2021/07/14 06:26:56;;;;;;;28.53;18.97;;;;;;;19.91;100.00;99903.06;5073240;28;20514;-73
2021/07/14 06:29:22;;;;;;;28.60;18.47;;;;;;;19.94;100.00;99918.94;5073296;28;20657;-73
2021/07/14 06:31:49;;;;;;;24.10;19.10;;;;;;;19.96;100.00;99904.69;5073247;28;20600;-74
2021/07/14 06:34:15;;;;;;;22.57;19.50;;;;;;;19.96;100.00;99913.78;5071973;28;20240;-74
2021/07/14 06:36:40;;;;;;;22.70;19.53;;;;;;;20.00;100.00;99920.19;5073236;28;20204;-74
2021/07/14 06:39:05;;;;;;;25.80;18.30;;;;;;;20.04;100.00;99911.88;5073117;28;20374;-74
2021/07/14 06:41:31;;;;;;;36.30;19.77;;;;;;;19.98;100.00;99911.44;5073037;28;20309;-73
2021/07/14 06:43:59;;;;;;;25.33;18.93;;;;;;;19.97;100.00;99907.09;5073190;28;20511;-74
2021/07/14 06:46:25;;;;;;;24.87;20.03;;;;;;;19.96;100.00;99899.94;5073026;28;20181;-73
2021/07/14 06:48:52;;;;;;;30.60;19.40;;;;;;;19.99;100.00;99884.50;5072831;28;20199;-74
2021/07/14 06:51:17;;;;;;;25.93;18.30;;;;;;;19.98;100.00;99899.56;5068760;28;20193;-74
2021/07/14 06:53:42;;;;;;;25.10;19.37;;;;;;;19.97;100.00;99884.13;5072671;28;20182;-73
2021/07/14 06:56:08;;;;;;;26.73;18.83;;;;;;;19.92;100.00;99894.38;5073040;28;20183;-73
2021/07/14 06:58:36;;;;;;;25.13;19.07;;;;;;;19.90;100.00;99893.16;5069303;28;20174;-74
2021/07/14 07:01:03;;;;;;;37.53;19.87;;;;;;;19.88;100.00;99896.34;5071143;28;20183;-74
2021/07/14 07:03:28;;;;;;;28.97;19.10;;;;;;;19.94;100.00;99896.75;5072094;28;20668;-74
2021/07/14 07:05:53;;;;;;;26.53;20.43;;;;;;;19.95;100.00;99890.03;5072639;28;20179;-74
2021/07/14 07:08:19;;;;;;;21.97;16.07;;;;;;;19.85;100.00;99876.91;5072524;28;20244;-74
2021/07/14 07:10:46;;;;;;;18.27;16.27;;;;;;;19.80;100.00;99886.38;5072551;28;20228;-73
2021/07/14 07:13:16;;;;;;;24.40;18.17;;;;;;;19.78;100.00;99871.31;5072861;28;20166;-74
2021/07/14 07:15:45;;;;;;;27.13;19.07;;;;;;;19.80;100.00;99871.72;5072763;28;20196;-74
2021/07/14 07:18:11;;;;;;;30.77;19.77;;;;;;;19.82;100.00;99872.94;5072583;28;20171;-74
2021/07/14 07:20:37;;;;;;;25.30;17.87;;;;;;;19.77;100.00;99872.50;5070293;28;20240;-74
2021/07/14 07:23:03;;;;;;;30.70;20.23;;;;;;;19.76;100.00;99873.69;5071807;28;20658;-74
2021/07/14 07:25:28;;;;;;;26.93;19.03;;;;;;;19.79;100.00;99870.94;5072324;28;20166;-74
2021/07/14 07:27:58;;;;;;;30.13;18.73;;;;;;;19.77;100.00;99864.97;5072063;28;20209;-74
2021/07/14 07:30:23;;;;;;;24.90;19.10;;;;;;;19.75;100.00;99861.81;5072245;28;20179;-74
2021/07/14 07:32:49;;;;;;;27.93;19.30;;;;;;;19.77;100.00;99864.97;5072161;28;20578;-73
2021/07/14 07:35:14;;;;;;;25.30;19.70;;;;;;;19.80;100.00;99857.84;5072204;28;20170;-74
2021/07/14 07:37:39;;;;;;;24.40;18.13;;;;;;;19.81;100.00;99863.00;5072217;28;20170;-74
2021/07/14 07:40:06;;;;;;;27.27;17.80;;;;;;;19.80;100.00;99858.66;5070842;28;20210;-74
2021/07/14 07:42:31;;;;;;;22.97;17.70;;;;;;;19.80;100.00;99869.75;5070637;28;20178;-74
2021/07/14 07:44:57;;;;;;;22.67;18.47;;;;;;;19.76;100.00;99871.69;5071946;28;20666;-74
2021/07/14 07:47:22;;;;;;;23.47;18.23;;;;;;;19.81;100.00;99865.78;5071793;28;20182;-74
2021/07/14 07:49:48;;;;;;;27.07;17.90;;;;;;;19.84;100.00;99864.25;5070620;28;20221;-74
2021/07/14 07:52:14;;;;;;;26.43;18.40;;;;;;;19.80;100.00;99863.41;5071734;28;20171;-74
2021/07/14 07:54:39;;;;;;;22.93;18.60;;;;;;;19.84;100.00;99865.03;5071580;28;20179;-74
2021/07/14 07:57:06;;;;;;;23.27;18.10;;;;;;;19.94;100.00;99868.22;5070421;28;20185;-74
2021/07/14 07:59:31;;;;;;;27.23;18.63;;;;;;;20.02;100.00;99864.31;5071457;28;20258;-74
2021/07/14 08:01:57;;;;;;;21.07;17.33;;;;;;;20.03;100.00;99868.69;5070981;28;20553;-74
2021/07/14 08:04:22;;;;;;;23.80;17.37;;;;;;;20.09;100.00;99870.69;5071236;28;20174;-74
2021/07/14 08:06:47;;;;;;;23.60;17.93;;;;;;;20.15;100.00;99876.66;5071247;28;20572;-72
2021/07/14 08:09:14;;;;;;;23.03;17.97;;;;;;;20.21;100.00;99897.28;5071054;28;20295;-72
2021/07/14 08:11:39;;;;;;;22.70;19.10;;;;;;;20.21;100.00;99892.53;5070899;28;20650;-72
2021/07/14 08:14:05;;;;;;;31.33;19.13;;;;;;;20.19;100.00;99897.69;5070661;28;20257;-74
2021/07/14 08:16:30;;;;;;;21.53;17.73;;;;;;;20.18;100.00;99900.84;5067625;28;20171;-74
2021/07/14 08:18:56;;;;;;;26.83;19.60;;;;;;;20.18;100.00;99898.84;5071148;28;20170;-74
2021/07/14 08:21:23;;;;;;;19.20;17.23;;;;;;;20.16;100.00;99894.88;5070527;28;20575;-74
2021/07/14 08:23:49;;;;;;;22.13;18.07;;;;;;;20.15;100.00;99901.63;5070882;28;20302;-78
2021/07/14 08:26:14;;;;;;;19.83;17.33;;;;;;;20.13;100.00;99896.47;5071511;28;20630;-77
2021/07/14 08:28:40;;;;;;;36.83;17.43;;;;;;;20.15;100.00;99902.41;5071176;28;20206;-74
2021/07/14 08:31:06;;;;;;;23.87;18.20;;;;;;;20.16;100.00;99898.47;5071006;28;20178;-74
2021/07/14 08:33:31;;;;;;;20.53;18.43;;;;;;;20.19;100.00;99899.66;5071398;28;20507;-74
2021/07/14 08:35:57;;;;;;;20.00;17.90;;;;;;;20.20;100.00;99892.91;5070931;28;20216;-75
2021/07/14 08:38:22;;;;;;;19.70;17.10;;;;;;;20.17;100.00;99899.25;5070936;28;20182;-75
2021/07/14 08:40:50;;;;;;;18.97;16.83;;;;;;;20.25;100.00;99906.41;5070888;28;20182;-75
2021/07/14 08:43:18;;;;;;;20.03;16.83;;;;;;;20.24;100.00;99910.38;5070794;28;20659;-74
2021/07/14 08:45:44;;;;;;;19.30;16.37;;;;;;;20.20;100.00;99915.91;5070771;28;20179;-74
2021/07/14 08:48:13;;;;;;;18.17;16.23;;;;;;;20.17;100.00;99905.59;5071088;28;20294;-75
2021/07/14 08:50:43;;;;;;;19.23;17.23;;;;;;;20.09;100.00;99887.31;5068571;28;20189;-74
2021/07/14 08:53:16;;;;;;;19.97;17.30;;;;;;;20.13;100.00;99877.06;5070154;28;20170;-74
2021/07/14 08:55:44;;;;;;;20.10;17.00;;;;;;;20.16;100.00;99879.03;5070521;28;20190;-75
2021/07/14 08:58:13;;;;;;;19.87;17.40;;;;;;;20.23;100.00;99889.34;5070419;28;20178;-75
2021/07/14 09:00:39;;;;;;;23.00;17.00;;;;;;;20.25;100.00;99894.50;5070648;28;20174;-74
2021/07/14 09:03:05;;;;;;;19.87;17.80;;;;;;;20.27;100.00;99900.50;5070610;28;20178;-74
2021/07/14 09:05:31;;;;;;;20.03;17.90;;;;;;;20.29;100.00;99907.25;5070695;28;20707;-74
2021/07/14 09:07:56;;;;;;;19.17;16.43;;;;;;;20.34;100.00;99898.53;5069130;28;20198;-74
2021/07/14 09:10:23;;;;;;;20.73;17.80;;;;;;;20.47;100.00;99921.19;5069032;28;20174;-74
2021/07/14 09:12:49;;;;;;;20.40;17.87;;;;;;;20.53;100.00;99929.94;5070472;28;20649;-72
2021/07/14 09:15:19;;;;;;;18.77;16.77;;;;;;;20.67;100.00;99916.09;5070624;28;20166;-73
2021/07/14 09:17:50;;;;;;;20.60;16.47;;;;;;;20.73;100.00;99912.56;5070359;28;20171;-73
2021/07/14 09:20:23;;;;;;;17.83;15.93;;;;;;;20.81;100.00;99916.13;5070356;28;20631;-74
2021/07/14 09:23:01;;;;;;;16.93;15.43;;;;;;;20.91;100.00;99920.13;5068132;28;20658;-73
2021/07/14 09:25:27;;;;;;;17.77;16.10;;;;;;;20.95;100.00;99921.72;5067351;28;20685;-74
2021/07/14 09:27:59;;;;;;;15.83;14.47;;;;;;;20.95;100.00;99927.28;5074462;28;20202;-73
2021/07/14 09:30:27;;;;;;;17.40;15.70;;;;;;;20.95;100.00;99921.72;5074472;28;20666;-72
2021/07/14 09:32:56;;;;;;;18.50;15.03;;;;;;;20.95;100.00;99912.59;5074396;28;20178;-72
2021/07/14 09:35:39;;;;;;;17.33;15.63;;;;;;;20.95;100.00;99916.16;5074388;28;20564;-72
2021/07/14 09:38:07;;;;;;;17.07;15.37;;;;;;;20.94;100.00;99928.47;5074399;28;20249;-72
2021/07/14 09:40:33;;;;;;;17.20;15.47;;;;;;;21.00;100.00;99721.38;5074347;28;20661;-71
2021/07/14 09:43:00;;;;;;;16.73;15.10;;;;;;;21.05;100.00;99817.38;5074225;28;20175;-72
2021/07/14 09:45:55;;;;;;;16.40;14.80;;;;;;;21.04;100.00;99729.69;5074116;28;20214;-72
2021/07/14 09:48:25;;;;;;;15.50;14.07;;;;;;;21.00;100.00;99823.34;5072532;28;20198;-72
2021/07/14 09:50:56;;;;;;;16.83;15.33;;;;;;;20.90;100.00;99713.03;5073778;28;20672;-77
2021/07/14 09:53:24;;;;;;;19.00;13.87;;;;;;;20.88;100.00;99818.19;5074050;28;20189;-77
2021/07/14 09:55:55;;;;;;;19.33;17.10;;;;;;;20.84;100.00;99818.19;5073807;28;20598;-77
2021/07/14 09:58:31;;;;;;;17.30;15.57;;;;;;;20.96;100.00;99841.97;5073857;28;20236;-78
2021/07/14 10:01:02;;;;;;;16.87;15.17;;;;;;;20.99;100.00;99849.53;5073767;28;20630;-76
2021/07/14 10:03:38;;;;;;;16.57;14.80;;;;;;;20.99;100.00;99882.84;5073935;28;20646;-78
2021/07/14 10:06:06;;;;;;;15.47;13.90;;;;;;;21.02;100.00;99868.97;5073762;28;20208;-77
2021/07/14 10:08:34;;;;;;;14.83;13.50;;;;;;;21.02;100.00;99876.50;5073603;28;20204;-76
2021/07/14 10:11:27;;;;;;;16.10;14.20;;;;;;;21.08;100.00;99859.03;5073603;28;20491;-77
2021/07/14 10:14:04;;;;;;;14.93;13.63;;;;;;;21.09;100.00;99857.84;5072482;28;20183;-76
2021/07/14 10:16:32;;;;;;;14.23;12.87;;;;;;;21.00;100.00;99868.56;5084259;28;20253;-77
2021/07/14 10:19:00;;;;;;;12.97;11.90;;;;;;;20.97;100.00;99863.78;5074941;28;20217;-77
2021/07/14 10:21:26;;;;;;;12.70;11.60;;;;;;;20.74;100.00;99868.94;5073082;28;20572;-77
2021/07/14 10:23:53;;;;;;;13.53;10.73;;;;;;;20.70;100.00;99870.91;5073541;28;20182;-76
2021/07/14 10:26:19;;;;;;;8.90;8.20;;;;;;;20.58;100.00;99869.31;5073624;28;20649;-77
2021/07/14 10:28:45;;;;;;;13.30;12.20;;;;;;;20.55;100.00;99869.31;5071302;28;20203;-77
2021/07/14 10:31:12;;;;;;;13.53;12.23;;;;;;;20.67;100.00;99871.69;5072007;28;20240;-77
2021/07/14 10:33:38;;;;;;;13.67;12.17;;;;;;;20.68;100.00;99898.25;5072793;28;20218;-77
2021/07/14 10:36:06;;;;;;;12.10;11.00;;;;;;;20.72;100.00;99890.75;5073211;28;20194;-77
2021/07/14 10:38:32;;;;;;;12.73;11.63;;;;;;;20.75;100.00;99901.84;5072403;28;20250;-77
2021/07/14 10:40:58;;;;;;;11.30;10.30;;;;;;;20.76;100.00;99903.44;5073187;28;20278;-76
2021/07/14 10:43:26;;;;;;;7.27;6.67;;;;;;;20.59;100.00;99898.66;5073137;28;20179;-76
2021/07/14 10:45:52;;;;;;;5.20;4.80;;;;;;;20.38;100.00;99904.09;5073541;28;20170;-76
2021/07/14 10:48:22;;;;;;;6.53;5.93;;;;;;;20.25;100.00;99902.84;5073110;28;20236;-76
2021/07/14 10:50:48;;;;;;;4.93;4.50;;;;;;;20.18;100.00;99896.09;5073010;28;20198;-76
2021/07/14 10:53:15;;;;;;;5.17;4.77;;;;;;;20.18;100.00;99900.84;5073049;28;20174;-76
2021/07/14 10:55:42;;;;;;;4.80;4.40;;;;;;;20.20;100.00;99899.25;5072982;28;20166;-76
2021/07/14 10:58:11;;;;;;;4.97;4.57;;;;;;;20.23;100.00;99899.66;5072836;28;20252;-76
2021/07/14 11:00:41;;;;;;;4.83;4.43;;;;;;;20.27;100.00;99897.72;5072830;28;20206;-76
2021/07/14 11:03:07;;;;;;;5.23;4.83;;;;;;;20.35;100.00;99913.97;5072811;28;20679;-76
2021/07/14 11:05:45;;;;;;;4.37;4.07;;;;;;;20.43;100.00;99917.63;5072835;28;20175;-77
2021/07/14 11:08:31;;;;;;;4.43;4.03;;;;;;;20.62;100.00;99933.94;5072649;28;20198;-74
2021/07/14 11:10:59;;;;;;;3.93;3.63;;;;;;;20.71;100.00;99928.81;5072541;28;20220;-74
2021/07/14 11:13:30;;;;;;;3.80;3.50;;;;;;;20.69;100.00;99922.88;5072689;28;20224;-77
2021/07/14 11:15:58;;;;;;;3.17;2.87;;;;;;;20.67;100.00;99922.44;5072559;28;20262;-76
2021/07/14 11:18:29;;;;;;;2.90;2.67;;;;;;;20.80;99.95;99922.88;5069841;28;20535;-76
2021/07/14 11:20:59;;;;;;;2.20;2.10;;;;;;;20.74;99.25;99919.69;5072016;28;20661;-76
2021/07/14 11:23:27;;;;;;;2.80;2.60;;;;;;;20.71;98.98;99911.38;5071031;28;20475;-76